»·PEaware :: AF1617 EIDW-LFPG

AF1617 :: EIDW-LFPG

FLIGHT INFORMATION

Flight Status: Arrived
Operator: Unknown
More flights by this operator :: More flights under this callsign
Pilot: Anonymous 35349 (35349)
Aircraft: AÉROSPATIALE ATR-72
(AT72)
More flights by this aircraft type
Origin: EIDW Dublin Intl
Ireland
Destination: LFPG Charles-De-Gaulle
France
More flights between these airports :: More routes between these airports
Route:
File this flight plan on PilotEdge
Remarks:
Altitude:
(Current/Filed)
21,000ft
Speed:
(Current/Filed)
330kts
Departed: 19-Aug-21 08:52 PM
Arrived: 19-Aug-21 10:09 PM
Distance/Time
Traveled:
425nm/1:16
Distance/Time
To Go:
Arrived

Flight Plot

Page will automatically refresh every two minutes.

Flight plan parsing failed; only flown route is shown


Map Options




Map Legend


Flown Route
Filed Route
Departure Airport
Arrival Airport
Navaid (VOR, NDB)
Fix

Horizontal Profiles

Position Reports

Time Latitude Longitude Heading Altitude Ground
Speed
19-Aug-21 20:47 53.425517 -6.246696 70 260ft 0kts
19-Aug-21 20:48 53.425414 -6.247183 70 260ft 2kts
19-Aug-21 20:49 53.425353 -6.247250 91 260ft 14kts
19-Aug-21 20:50 53.422360 -6.246697 208 260ft 7kts
19-Aug-21 20:51 53.420339 -6.254121 276 260ft 73kts
19-Aug-21 20:52 53.440681 -6.365254 303 1666ft 368kts
19-Aug-21 20:53 53.514580 -6.423849 10 3367ft 270kts
19-Aug-21 20:54 53.558546 -6.333984 86 5169ft 269kts
19-Aug-21 20:55 53.519322 -6.231553 142 7022ft 274kts
19-Aug-21 20:56 53.458080 -6.155685 139 8820ft 275kts
19-Aug-21 20:57 53.405592 -6.058443 127 9986ft 291kts
19-Aug-21 20:58 53.360054 -5.947921 123 9999ft 286kts
19-Aug-21 20:59 53.316678 -5.836344 122 9999ft 285kts
19-Aug-21 21:00 53.273413 -5.725508 123 9999ft 285kts
19-Aug-21 21:01 53.229926 -5.614997 123 10000ft 285kts
19-Aug-21 21:02 53.186335 -5.504806 123 10145ft 279kts
19-Aug-21 21:03 53.134847 -5.375296 123 11222ft 365kts
19-Aug-21 21:04 53.077583 -5.232003 123 12227ft 377kts
19-Aug-21 21:05 53.019015 -5.086303 123 13228ft 382kts
19-Aug-21 21:06 52.959229 -4.938452 123 14231ft 388kts
19-Aug-21 21:07 52.898610 -4.789427 124 15232ft 393kts
19-Aug-21 21:08 52.836645 -4.637976 124 16236ft 399kts
19-Aug-21 21:09 52.773908 -4.485501 124 17236ft 405kts
19-Aug-21 21:10 52.709652 -4.330279 124 17978ft 413kts
19-Aug-21 21:11 52.644395 -4.173608 124 17999ft 414kts
19-Aug-21 21:12 52.579027 -4.017644 124 17999ft 414kts
19-Aug-21 21:13 52.513479 -3.862182 124 17999ft 414kts
19-Aug-21 21:14 52.447819 -3.707434 124 18000ft 414kts
19-Aug-21 21:15 52.381962 -3.553175 125 17999ft 414kts
19-Aug-21 21:16 52.315748 -3.399004 125 17999ft 414kts
19-Aug-21 21:17 52.249321 -3.245271 125 18000ft 414kts
19-Aug-21 21:18 52.182725 -3.092026 125 18000ft 414kts
19-Aug-21 21:19 52.115977 -2.939348 125 17999ft 414kts
19-Aug-21 21:20 52.049006 -2.787085 125 17999ft 414kts
19-Aug-21 21:21 51.981879 -2.635376 125 18000ft 414kts
19-Aug-21 21:22 51.914635 -2.484304 125 17999ft 414kts
19-Aug-21 21:23 51.847097 -2.333429 125 17999ft 414kts
19-Aug-21 21:24 51.779476 -2.183178 126 18000ft 414kts
19-Aug-21 21:25 51.711606 -2.033250 126 17999ft 414kts
19-Aug-21 21:26 51.643561 -1.883821 126 17999ft 414kts
19-Aug-21 21:27 51.575293 -1.734786 126 17999ft 414kts
19-Aug-21 21:28 51.506587 -1.585746 126 18000ft 414kts
19-Aug-21 21:29 51.437898 -1.437684 126 17999ft 414kts
19-Aug-21 21:30 51.369039 -1.290141 126 17999ft 414kts
19-Aug-21 21:31 51.299949 -1.142896 126 18000ft 414kts
19-Aug-21 21:32 51.230942 -0.996478 127 18250ft 410kts
19-Aug-21 21:33 51.161699 -0.850515 127 19250ft 417kts
19-Aug-21 21:34 51.090913 -0.702205 127 20255ft 423kts
19-Aug-21 21:35 51.023156 -0.547718 122 20985ft 432kts
19-Aug-21 21:36 50.959522 -0.385553 121 20999ft 433kts
19-Aug-21 21:37 50.896427 -0.222482 121 20999ft 432kts
19-Aug-21 21:38 50.833100 -0.060735 121 20999ft 432kts
19-Aug-21 21:39 50.768004 0.099042 127 20999ft 432kts
19-Aug-21 21:40 50.682229 0.231597 140 21000ft 433kts
19-Aug-21 21:41 50.586431 0.346177 142 21000ft 433kts
19-Aug-21 21:42 50.491843 0.463709 140 21000ft 432kts
19-Aug-21 21:43 50.398581 0.582284 141 20563ft 429kts
19-Aug-21 21:44 50.307860 0.696508 141 19052ft 407kts
19-Aug-21 21:45 50.221053 0.804936 141 17551ft 394kts
19-Aug-21 21:46 50.136390 0.910199 141 16048ft 384kts
19-Aug-21 21:47 50.053364 1.013009 141 14547ft 378kts
19-Aug-21 21:48 49.971685 1.113723 141 13050ft 373kts
19-Aug-21 21:49 49.883121 1.193580 155 11561ft 366kts
19-Aug-21 21:50 49.790374 1.256388 156 10063ft 361kts
19-Aug-21 21:51 49.699624 1.320357 154 8566ft 356kts
19-Aug-21 21:52 49.611207 1.387776 152 7067ft 352kts
19-Aug-21 21:53 49.525351 1.459050 150 5567ft 348kts
19-Aug-21 21:54 49.442379 1.534373 148 4134ft 343kts
19-Aug-21 21:55 49.367166 1.609481 145 3991ft 301kts
19-Aug-21 21:56 49.303591 1.679533 143 3996ft 266kts
19-Aug-21 21:57 49.246257 1.749004 140 3999ft 261kts
19-Aug-21 21:58 49.191455 1.822115 137 3999ft 261kts
19-Aug-21 21:59 49.139418 1.899450 134 3999ft 261kts
19-Aug-21 22:00 49.090765 1.981550 130 3997ft 258kts
19-Aug-21 22:01 49.049339 2.063314 125 4129ft 240kts
19-Aug-21 22:02 49.013544 2.149262 119 4126ft 240kts
19-Aug-21 22:03 48.986260 2.242312 106 4121ft 241kts
19-Aug-21 22:04 48.982469 2.328358 87 4333ft 200kts
19-Aug-21 22:05 48.987175 2.412099 84 4265ft 187kts
19-Aug-21 22:06 48.991323 2.482196 84 2600ft 170kts
19-Aug-21 22:07 48.995724 2.549357 84 588ft 157kts
19-Aug-21 22:08 48.998111 2.583355 59 410ft 28kts

Navigation Log

Ident Type
Flight plan parsing failed, navigation log unavailable